Time;durP1;ratioP1;P1;durP2;ratioP2;P2;SDS_P1;SDS_P2;PMS_P1;PMS_P2;Temp;Humidity;BMP_temperature;BMP_pressure;BME280_temperature;BME280_humidity;BME280_pressure;Samples;Min_cycle;Max_cycle;Signal;HPM_P1;HPM_P2
2022/01/14 00:01:49;;;;;;;6.40;3.80;;;21.60;31.80;;;;;;5093962;28;20378;-67
2022/01/14 00:04:15;;;;;;;4.63;3.58;;;21.60;31.20;;;;;;5093754;28;20798;-67
2022/01/14 00:06:40;;;;;;;4.57;3.67;;;21.60;31.20;;;;;;5093838;28;20382;-67
2022/01/14 00:09:09;;;;;;;4.63;3.63;;;21.60;31.20;;;;;;5093719;28;20443;-67
2022/01/14 00:11:39;;;;;;;4.95;3.50;;;21.60;31.20;;;;;;5093762;28;20436;-67
2022/01/14 00:14:20;;;;;;;5.00;4.10;;;21.60;31.20;;;;;;5093679;28;20410;-67
2022/01/14 00:16:47;;;;;;;4.50;3.78;;;21.60;31.20;;;;;;5075428;28;20390;-67
2022/01/14 00:19:13;;;;;;;4.60;3.70;;;21.50;31.10;;;;;;5093532;28;20464;-67
2022/01/14 00:21:41;;;;;;;4.47;3.78;;;21.50;31.10;;;;;;5093548;28;20375;-67
2022/01/14 00:24:12;;;;;;;5.17;4.00;;;21.50;31.10;;;;;;5075263;28;20417;-69
2022/01/14 00:32:12;;;;;;;4.68;3.80;;;21.50;31.20;;;;;;5093569;28;20421;-67
2022/01/14 00:34:38;;;;;;;4.50;3.70;;;21.40;31.20;;;;;;5093369;28;20388;-67
2022/01/14 00:37:04;;;;;;;4.65;3.80;;;21.50;31.20;;;;;;5093191;28;20392;-69
2022/01/14 00:39:30;;;;;;;4.75;4.03;;;21.40;31.10;;;;;;5093223;28;20918;-67
2022/01/14 00:41:56;;;;;;;4.85;4.10;;;21.40;31.10;;;;;;5093086;28;20378;-68
2022/01/14 00:44:22;;;;;;;4.63;4.03;;;21.40;31.00;;;;;;5093037;28;20923;-67
2022/01/14 00:46:49;;;;;;;5.32;4.10;;;21.30;31.10;;;;;;5092849;28;20405;-66
2022/01/14 00:49:17;;;;;;;4.45;3.80;;;21.20;31.20;;;;;;5092955;28;20386;-67
2022/01/14 00:51:43;;;;;;;4.78;4.20;;;21.20;31.20;;;;;;5092996;28;20378;-67
2022/01/14 00:54:11;;;;;;;4.80;4.22;;;21.10;31.30;;;;;;5092911;28;20859;-67
2022/01/14 00:59:15;;;;;;;4.72;4.20;;;21.10;31.40;;;;;;5092725;28;20432;-68
2022/01/14 01:01:48;;;;;;;4.90;3.90;;;21.00;31.30;;;;;;5092841;28;20382;-68
2022/01/14 01:04:18;;;;;;;5.05;4.00;;;21.00;31.30;;;;;;5092651;28;20473;-67
2022/01/14 01:06:45;;;;;;;5.13;4.30;;;20.90;31.20;;;;;;5092695;28;20374;-67
2022/01/14 01:09:12;;;;;;;4.40;4.00;;;20.90;31.40;;;;;;5092548;28;20408;-67
2022/01/14 01:11:50;;;;;;;5.30;4.30;;;20.90;31.70;;;;;;5091451;28;20898;-68
2022/01/14 01:14:21;;;;;;;5.13;4.10;;;20.90;31.60;;;;;;5092526;28;20717;-67
2022/01/14 01:16:47;;;;;;;6.00;4.30;;;20.90;31.60;;;;;;5092510;28;20382;-67
2022/01/14 01:19:13;;;;;;;4.97;4.28;;;20.90;31.50;;;;;;5092340;28;20458;-68
2022/01/14 01:21:39;;;;;;;4.70;4.00;;;20.80;31.40;;;;;;5092509;28;20463;-68
2022/01/14 01:24:07;;;;;;;5.35;4.10;;;20.80;31.60;;;;;;5092384;28;20394;-67
2022/01/14 01:26:38;;;;;;;4.68;3.85;;;20.70;31.50;;;;;;5092380;28;20378;-69
2022/01/14 01:31:43;;;;;;;4.82;4.03;;;20.70;31.40;;;;;;5092256;28;20531;-69
2022/01/14 01:34:23;;;;;;;4.75;4.05;;;20.70;31.50;;;;;;5074096;28;20426;-66
2022/01/14 01:36:55;;;;;;;4.75;4.07;;;20.60;31.40;;;;;;5092109;28;20382;-69
2022/01/14 01:39:23;;;;;;;5.22;4.28;;;20.60;31.40;;;;;;5092047;28;20445;-69
2022/01/14 01:41:59;;;;;;;4.40;3.95;;;20.60;31.50;;;;;;5073391;28;20389;-66
2022/01/14 01:44:27;;;;;;;4.88;3.97;;;20.60;31.50;;;;;;5074271;28;20382;-66
2022/01/14 01:46:54;;;;;;;4.63;4.07;;;20.60;31.50;;;;;;5091934;28;20878;-66
2022/01/14 01:49:22;;;;;;;5.50;4.07;;;20.60;31.50;;;;;;5091576;28;20417;-69
2022/01/14 01:51:50;;;;;;;4.93;4.20;;;20.50;31.40;;;;;;5092017;28;20393;-67
2022/01/14 01:54:17;;;;;;;5.35;4.07;;;20.50;32.10;;;;;;5091853;28;20412;-68
2022/01/14 01:56:43;;;;;;;5.40;4.30;;;20.50;31.60;;;;;;5091983;28;20553;-68
2022/01/14 01:59:09;;;;;;;6.90;4.57;;;20.60;31.50;;;;;;5091828;28;20497;-68
2022/01/14 02:01:38;;;;;;;6.25;4.47;;;20.50;31.40;;;;;;5091911;28;20751;-68
2022/01/14 02:04:04;;;;;;;5.88;4.45;;;20.50;31.40;;;;;;5091859;28;20398;-67
2022/01/14 02:06:31;;;;;;;6.20;4.50;;;20.40;31.30;;;;;;5091861;28;20483;-67
2022/01/14 02:08:57;;;;;;;5.55;4.50;;;20.40;31.50;;;;;;5091890;28;20436;-66
2022/01/14 02:11:23;;;;;;;5.90;4.50;;;20.40;31.40;;;;;;5091820;28;20385;-68
2022/01/14 02:13:50;;;;;;;6.00;4.57;;;20.40;31.40;;;;;;5091810;28;20883;-67
2022/01/14 02:19:22;;;;;;;6.10;4.78;;;20.40;31.30;;;;;;5091782;28;20447;-66
2022/01/14 02:24:55;;;;;;;6.38;4.53;;;20.30;31.60;;;;;;5091837;28;20461;-66
2022/01/14 02:27:19;;;;;;;5.65;4.50;;;20.30;31.60;;;;;;5091471;28;20488;-66
2022/01/14 02:29:45;;;;;;;5.65;4.40;;;20.30;31.50;;;;;;5091625;28;20473;-66
2022/01/14 02:32:11;;;;;;;5.70;4.47;;;20.30;31.40;;;;;;5091540;28;20390;-66
2022/01/14 02:34:39;;;;;;;5.57;4.20;;;20.30;31.40;;;;;;5091666;28;20391;-67
2022/01/14 02:37:05;;;;;;;6.22;4.38;;;20.30;31.30;;;;;;5091610;28;20386;-68
2022/01/14 02:39:31;;;;;;;5.43;4.53;;;20.30;31.60;;;;;;5091559;28;20445;-67
2022/01/14 02:41:57;;;;;;;6.00;4.40;;;20.20;31.50;;;;;;5073448;28;20390;-69
2022/01/14 02:44:25;;;;;;;5.38;4.50;;;20.20;31.60;;;;;;5091598;28;20386;-66
2022/01/14 02:46:57;;;;;;;5.40;4.13;;;20.20;31.40;;;;;;5091416;28;20385;-67
2022/01/14 02:49:27;;;;;;;5.18;4.15;;;20.20;32.00;;;;;;5091434;28;20398;-66
2022/01/14 02:51:53;;;;;;;5.10;4.20;;;20.20;31.40;;;;;;5091960;28;20402;-66
2022/01/14 02:54:25;;;;;;;6.10;4.40;;;20.20;31.50;;;;;;5095167;28;20805;-67
2022/01/14 02:56:55;;;;;;;5.55;4.10;;;20.10;31.50;;;;;;5095186;28;20446;-67
2022/01/14 02:59:21;;;;;;;4.97;3.95;;;20.10;31.50;;;;;;5094900;28;20410;-66
2022/01/14 03:01:48;;;;;;;5.70;4.00;;;20.20;31.50;;;;;;5095099;28;20389;-69
2022/01/14 03:04:17;;;;;;;5.13;3.92;;;20.10;31.40;;;;;;5094948;28;20914;-66
2022/01/14 03:06:44;;;;;;;5.85;4.45;;;20.10;31.40;;;;;;5094993;28;20386;-69
2022/01/14 03:09:10;;;;;;;5.47;4.10;;;20.00;31.50;;;;;;5076622;28;20386;-66
2022/01/14 03:11:45;;;;;;;5.20;3.90;;;20.00;31.50;;;;;;5110608;28;20385;-68
2022/01/14 03:14:13;;;;;;;5.18;4.20;;;20.00;31.40;;;;;;5076739;28;20398;-66
2022/01/14 03:16:41;;;;;;;5.88;4.03;;;20.00;31.40;;;;;;5094833;28;20497;-68
2022/01/14 03:19:14;;;;;;;5.35;4.10;;;20.00;31.40;;;;;;5076433;28;20432;-67
2022/01/14 03:21:41;;;;;;;4.70;4.00;;;20.10;31.40;;;;;;5076685;28;20422;-69
2022/01/14 03:24:20;;;;;;;4.70;3.85;;;20.10;31.20;;;;;;5094593;28;20386;-68
2022/01/14 03:26:48;;;;;;;4.97;4.00;;;20.20;31.30;;;;;;5094658;28;20826;-67
2022/01/14 03:29:15;;;;;;;4.55;3.90;;;20.20;31.20;;;;;;5076323;28;20421;-67
2022/01/14 03:31:41;;;;;;;4.80;3.83;;;20.20;31.10;;;;;;5094665;28;20993;-69
2022/01/14 03:34:07;;;;;;;5.15;3.78;;;20.30;31.00;;;;;;5094445;28;20401;-66
2022/01/14 03:36:33;;;;;;;4.90;4.10;;;20.30;31.00;;;;;;5094550;28;20382;-70
2022/01/14 03:38:59;;;;;;;4.68;3.83;;;20.30;31.00;;;;;;5094281;28;20422;-69
2022/01/14 03:41:25;;;;;;;4.47;4.00;;;20.30;30.90;;;;;;5094424;28;20374;-67
2022/01/14 03:43:51;;;;;;;4.65;3.85;;;20.40;30.90;;;;;;5094363;28;20744;-67
2022/01/14 03:46:16;;;;;;;4.53;3.58;;;20.40;30.80;;;;;;5093892;28;20478;-66
2022/01/14 03:48:42;;;;;;;4.97;3.93;;;20.40;30.80;;;;;;5094269;28;20894;-68
2022/01/14 03:51:08;;;;;;;4.05;3.65;;;20.40;30.90;;;;;;5094180;28;20386;-69
2022/01/14 03:53:33;;;;;;;4.67;3.70;;;20.40;30.80;;;;;;5075995;28;20386;-67
2022/01/14 03:55:59;;;;;;;5.20;4.00;;;20.40;30.70;;;;;;5094062;28;20382;-69
2022/01/14 03:58:25;;;;;;;4.43;3.40;;;20.40;30.70;;;;;;5093939;28;20398;-69
2022/01/14 04:00:50;;;;;;;4.53;3.55;;;20.40;30.70;;;;;;5093892;28;20763;-67
2022/01/14 04:03:16;;;;;;;4.20;3.57;;;20.40;30.60;;;;;;5093677;28;20381;-67
2022/01/14 04:05:42;;;;;;;5.07;3.95;;;20.40;30.40;;;;;;5075356;28;20489;-67
2022/01/14 04:08:07;;;;;;;7.33;3.87;;;20.40;30.70;;;;;;5093793;28;20850;-68
2022/01/14 04:10:33;;;;;;;6.43;4.05;;;20.40;31.10;;;;;;5093858;28;20390;-68
2022/01/14 04:13:04;;;;;;;10.48;3.85;;;20.50;31.00;;;;;;5093835;28;20740;-65
2022/01/14 04:15:37;;;;;;;6.53;4.38;;;20.60;31.90;;;;;;5093884;28;20381;-67
2022/01/14 04:18:03;;;;;;;6.63;4.50;;;20.70;32.60;;;;;;5093675;28;20378;-69
2022/01/14 04:20:29;;;;;;;5.55;4.63;;;20.70;31.90;;;;;;5093654;28;20394;-67
2022/01/14 04:22:55;;;;;;;5.75;4.30;;;20.70;31.90;;;;;;5093432;28;20846;-69
2022/01/14 04:25:22;;;;;;;6.82;4.38;;;20.70;32.30;;;;;;5093468;28;20418;-66
2022/01/14 04:27:47;;;;;;;5.50;4.40;;;20.60;32.20;;;;;;5093429;28;20388;-66
2022/01/14 04:30:14;;;;;;;6.15;4.35;;;20.60;32.30;;;;;;5092449;28;20473;-68
2022/01/14 04:32:40;;;;;;;6.43;4.32;;;20.60;32.30;;;;;;5092831;28;20431;-67
2022/01/14 04:35:06;;;;;;;9.17;4.40;;;20.60;31.90;;;;;;5092852;28;20448;-70
2022/01/14 04:37:32;;;;;;;6.73;4.20;;;20.70;32.30;;;;;;5092999;28;20458;-66
2022/01/14 04:39:57;;;;;;;6.47;4.47;;;20.70;32.30;;;;;;5092337;28;20794;-67
2022/01/14 04:42:24;;;;;;;10.57;4.40;;;20.80;32.20;;;;;;5093136;28;20383;-67
2022/01/14 04:44:53;;;;;;;8.57;4.43;;;20.80;32.20;;;;;;5092817;28;20752;-69
2022/01/14 04:47:31;;;;;;;6.20;4.55;;;20.80;32.00;;;;;;5092642;28;20421;-71
2022/01/14 04:49:57;;;;;;;6.75;3.80;;;20.80;31.80;;;;;;5074896;28;20425;-66
2022/01/14 04:52:23;;;;;;;5.80;3.88;;;20.80;32.00;;;;;;5092354;28;20389;-70
2022/01/14 04:54:49;;;;;;;7.13;4.10;;;20.80;31.70;;;;;;5091512;28;20390;-68
2022/01/14 04:57:16;;;;;;;6.00;4.17;;;20.80;31.70;;;;;;5092535;28;20530;-71
2022/01/14 04:59:46;;;;;;;5.22;3.90;;;20.80;31.30;;;;;;5074067;28;20761;-66
2022/01/14 05:02:13;;;;;;;7.15;4.13;;;20.80;31.20;;;;;;5073557;28;20386;-70
2022/01/14 05:04:40;;;;;;;5.90;4.00;;;20.80;31.40;;;;;;5074730;28;20713;-66
2022/01/14 05:07:10;;;;;;;6.13;4.10;;;20.80;31.20;;;;;;5074507;28;20902;-71
2022/01/14 05:09:40;;;;;;;4.72;3.90;;;20.80;31.00;;;;;;5092608;28;20895;-67
2022/01/14 05:12:09;;;;;;;5.97;3.93;;;20.70;31.00;;;;;;5092666;28;20390;-67
2022/01/14 05:14:36;;;;;;;5.93;4.07;;;20.70;30.90;;;;;;5092295;28;20412;-66
2022/01/14 05:17:03;;;;;;;5.77;3.97;;;20.70;30.70;;;;;;5091785;28;20473;-66
2022/01/14 05:19:28;;;;;;;5.37;3.70;;;20.70;30.60;;;;;;5092586;28;20586;-65
2022/01/14 05:21:54;;;;;;;4.88;4.00;;;20.70;30.40;;;;;;5092278;28;20828;-66
2022/01/14 05:24:22;;;;;;;4.88;3.65;;;20.60;30.30;;;;;;5092060;28;20411;-66
2022/01/14 05:26:47;;;;;;;5.20;3.80;;;20.60;30.20;;;;;;5092408;28;20956;-65
2022/01/14 05:29:13;;;;;;;5.40;3.83;;;20.60;30.10;;;;;;5092108;28;20394;-66
2022/01/14 05:31:51;;;;;;;5.90;4.03;;;20.60;30.10;;;;;;5091972;28;20390;-65
2022/01/14 05:34:17;;;;;;;7.03;3.85;;;20.60;30.10;;;;;;5092171;28;20385;-67
2022/01/14 05:36:44;;;;;;;45.78;8.07;;;20.60;30.50;;;;;;5092239;28;20389;-69
2022/01/14 05:39:11;;;;;;;17.35;4.53;;;20.60;31.30;;;;;;5091966;28;20401;-69
2022/01/14 05:41:37;;;;;;;33.17;6.00;;;20.70;31.50;;;;;;5091966;28;20398;-73
2022/01/14 05:44:05;;;;;;;16.13;4.60;;;20.70;31.90;;;;;;5073888;28;20925;-65
2022/01/14 05:46:31;;;;;;;22.25;5.68;;;20.70;31.60;;;;;;5091839;28;20870;-69
2022/01/14 05:48:57;;;;;;;18.75;5.65;;;20.70;31.60;;;;;;5091915;28;20469;-64
2022/01/14 05:51:22;;;;;;;25.57;5.50;;;20.80;31.80;;;;;;5074222;28;20473;-65
2022/01/14 05:53:48;;;;;;;22.17;5.75;;;20.80;32.50;;;;;;5091957;28;20440;-65
2022/01/14 05:56:14;;;;;;;19.60;5.73;;;20.90;32.80;;;;;;5073020;28;20409;-65
2022/01/14 05:58:39;;;;;;;21.08;5.60;;;20.90;33.90;;;;;;5091709;28;20421;-65
2022/01/14 06:01:05;;;;;;;18.73;5.30;;;20.90;34.10;;;;;;5097994;28;20397;-63
2022/01/14 06:03:31;;;;;;;18.77;5.07;;;20.90;33.80;;;;;;5091444;28;20397;-66
2022/01/14 06:05:56;;;;;;;15.47;4.87;;;20.90;33.60;;;;;;5091583;28;20397;-64
2022/01/14 06:08:22;;;;;;;16.10;4.82;;;20.90;33.70;;;;;;5091594;28;20390;-65
2022/01/14 06:10:47;;;;;;;12.00;4.67;;;20.90;33.70;;;;;;5090785;28;20390;-65
2022/01/14 06:13:13;;;;;;;17.08;4.90;;;20.90;33.60;;;;;;5090627;28;20397;-66
2022/01/14 06:15:38;;;;;;;12.20;4.90;;;20.90;32.90;;;;;;5097957;28;20405;-67
2022/01/14 06:18:04;;;;;;;13.00;4.00;;;20.90;33.00;;;;;;5090794;28;20386;-64
2022/01/14 06:20:30;;;;;;;12.18;4.78;;;20.90;33.80;;;;;;5090686;28;20390;-65
2022/01/14 06:22:55;;;;;;;12.97;4.60;;;20.90;33.70;;;;;;5090440;28;20894;-64
2022/01/14 06:25:21;;;;;;;8.75;4.20;;;20.90;33.50;;;;;;5090299;28;20394;-65
2022/01/14 06:27:47;;;;;;;6.87;4.40;;;21.00;33.40;;;;;;5092486;28;20382;-67
2022/01/14 06:30:13;;;;;;;8.52;4.60;;;21.00;33.60;;;;;;5094297;28;20481;-65
2022/01/14 06:32:42;;;;;;;8.63;4.28;;;21.00;33.60;;;;;;5095011;28;20955;-65
2022/01/14 06:35:12;;;;;;;10.15;4.43;;;21.00;33.30;;;;;;5094027;28;20386;-64
2022/01/14 06:37:39;;;;;;;7.95;4.10;;;21.00;32.90;;;;;;5068927;28;20390;-64
2022/01/14 06:40:06;;;;;;;8.20;4.10;;;21.00;32.70;;;;;;5075976;28;20795;-64
2022/01/14 06:42:33;;;;;;;6.72;3.90;;;21.00;32.80;;;;;;5094099;28;20951;-64
2022/01/14 06:44:58;;;;;;;6.07;3.90;;;21.00;32.80;;;;;;5093259;28;20400;-70
2022/01/14 06:47:25;;;;;;;7.70;4.03;;;21.00;32.70;;;;;;5097678;28;20416;-73
2022/01/14 06:49:50;;;;;;;7.15;3.83;;;20.90;32.50;;;;;;5093409;28;20386;-64
2022/01/14 06:52:16;;;;;;;4.90;3.47;;;21.00;32.50;;;;;;5093682;28;20747;-65
2022/01/14 06:54:42;;;;;;;6.28;3.90;;;20.90;32.40;;;;;;5093415;28;20915;-63
2022/01/14 06:57:09;;;;;;;5.50;4.20;;;20.90;32.30;;;;;;5093820;28;20464;-65
2022/01/14 06:59:35;;;;;;;7.45;4.13;;;20.90;32.00;;;;;;5094581;28;20875;-63
2022/01/14 07:02:01;;;;;;;6.35;4.00;;;20.90;31.90;;;;;;5094633;28;20385;-63
2022/01/14 07:04:27;;;;;;;5.40;3.38;;;20.90;31.80;;;;;;5094837;28;20390;-64
2022/01/14 07:06:53;;;;;;;6.72;4.00;;;20.90;31.60;;;;;;5094657;28;20393;-64
2022/01/14 07:09:19;;;;;;;5.80;3.80;;;20.90;31.50;;;;;;5094338;28;20386;-64
2022/01/14 07:11:52;;;;;;;6.55;3.90;;;20.90;31.40;;;;;;5094085;28;20416;-63
2022/01/14 07:14:18;;;;;;;6.40;3.83;;;20.90;31.30;;;;;;5094762;28;20392;-64
2022/01/14 07:16:43;;;;;;;6.00;4.00;;;20.90;31.30;;;;;;5094446;28;20871;-63
2022/01/14 07:19:09;;;;;;;5.50;3.70;;;20.90;31.40;;;;;;5094114;28;20410;-63
2022/01/14 07:21:35;;;;;;;5.78;3.97;;;20.90;31.40;;;;;;5094277;28;20393;-63
2022/01/14 07:24:05;;;;;;;6.40;4.10;;;20.80;31.40;;;;;;5094008;28;20906;-63
2022/01/14 07:26:30;;;;;;;5.60;4.22;;;20.80;31.30;;;;;;5094153;28;20383;-63
2022/01/14 07:28:56;;;;;;;5.47;3.90;;;20.80;31.20;;;;;;5094076;28;20390;-63
2022/01/14 07:31:22;;;;;;;4.53;3.80;;;20.80;31.20;;;;;;5075915;28;20473;-63
2022/01/14 07:33:47;;;;;;;5.85;3.78;;;20.80;31.10;;;;;;5093651;28;20876;-63
2022/01/14 07:36:13;;;;;;;5.03;4.00;;;20.80;31.00;;;;;;5094015;28;21001;-63
2022/01/14 07:38:39;;;;;;;5.85;4.20;;;20.80;31.00;;;;;;5092790;28;20410;-63
2022/01/14 07:41:05;;;;;;;6.27;4.50;;;20.80;30.80;;;;;;5093821;28;20768;-63
2022/01/14 07:43:30;;;;;;;6.15;4.60;;;20.80;30.70;;;;;;5093695;28;20382;-63
2022/01/14 07:45:56;;;;;;;6.20;4.57;;;20.80;30.70;;;;;;5093391;28;20406;-63
2022/01/14 07:48:22;;;;;;;6.38;4.57;;;20.90;30.70;;;;;;5075509;28;20413;-66
2022/01/14 07:50:48;;;;;;;6.80;4.72;;;20.90;30.60;;;;;;5093708;28;20481;-63
2022/01/14 07:53:14;;;;;;;6.20;4.60;;;20.90;30.40;;;;;;5075633;28;20907;-63
2022/01/14 07:55:40;;;;;;;6.10;4.75;;;20.90;30.50;;;;;;5093595;28;20398;-63
2022/01/14 07:58:06;;;;;;;6.37;4.90;;;20.90;30.40;;;;;;5093347;28;20583;-63
2022/01/14 08:00:33;;;;;;;6.40;4.88;;;20.90;30.40;;;;;;5093777;28;20401;-63
2022/01/14 08:02:59;;;;;;;5.32;4.40;;;20.90;30.40;;;;;;5093628;28;20410;-65
2022/01/14 08:05:25;;;;;;;6.63;5.00;;;20.90;30.30;;;;;;5093713;28;20422;-64
2022/01/14 08:07:53;;;;;;;6.28;4.63;;;20.90;30.20;;;;;;5093385;28;20385;-63
2022/01/14 08:10:18;;;;;;;6.22;4.60;;;20.90;30.20;;;;;;5093466;28;20451;-63
2022/01/14 08:12:46;;;;;;;6.72;4.93;;;20.90;30.20;;;;;;5093461;28;20862;-63
2022/01/14 08:15:12;;;;;;;6.55;4.90;;;20.90;30.10;;;;;;5093404;28;20386;-63
2022/01/14 08:17:39;;;;;;;5.97;4.75;;;20.90;30.00;;;;;;5093370;28;20505;-63
2022/01/14 08:20:05;;;;;;;6.37;4.70;;;20.90;30.00;;;;;;5093190;28;20413;-63
2022/01/14 08:22:32;;;;;;;6.20;4.80;;;20.90;30.00;;;;;;5093332;28;20382;-63
2022/01/14 08:24:58;;;;;;;5.97;5.00;;;21.00;30.00;;;;;;5093216;28;20866;-63
2022/01/14 08:27:26;;;;;;;5.72;4.60;;;21.00;30.00;;;;;;5092961;28;20982;-63
2022/01/14 08:29:52;;;;;;;6.10;4.85;;;21.00;30.00;;;;;;5093059;28;20386;-64
2022/01/14 08:32:19;;;;;;;6.40;5.05;;;21.00;30.00;;;;;;5092358;28;20374;-63
2022/01/14 08:34:44;;;;;;;5.50;4.60;;;21.00;30.00;;;;;;5092829;28;20394;-64
2022/01/14 08:37:10;;;;;;;6.63;4.80;;;21.00;30.00;;;;;;5092939;28;20386;-63
2022/01/14 08:39:36;;;;;;;6.15;5.20;;;21.00;30.10;;;;;;5093008;28;20766;-63
2022/01/14 08:42:04;;;;;;;6.17;4.90;;;21.00;30.00;;;;;;5092765;28;20934;-63
2022/01/14 08:44:30;;;;;;;5.47;4.57;;;21.00;30.00;;;;;;5074660;28;20401;-63
2022/01/14 08:46:56;;;;;;;5.80;4.80;;;21.00;30.00;;;;;;5092469;28;20402;-63
2022/01/14 08:49:22;;;;;;;4.93;4.43;;;21.10;30.00;;;;;;5092769;28;20443;-63
2022/01/14 08:51:51;;;;;;;5.50;4.53;;;21.10;30.00;;;;;;5092492;28;20466;-63
2022/01/14 08:54:17;;;;;;;6.43;4.75;;;21.10;30.00;;;;;;5092401;28;20382;-63
2022/01/14 08:56:43;;;;;;;4.85;4.20;;;21.10;30.10;;;;;;5092717;28;20452;-63
2022/01/14 08:59:09;;;;;;;6.20;4.70;;;21.20;30.10;;;;;;5092433;28;20410;-63
2022/01/14 09:01:35;;;;;;;5.25;4.57;;;21.20;30.10;;;;;;5092501;28;20413;-63
2022/01/14 09:04:02;;;;;;;6.00;4.35;;;21.20;30.00;;;;;;5092564;28;20397;-63
2022/01/14 09:06:28;;;;;;;5.25;4.50;;;21.30;30.00;;;;;;5074202;28;20901;-63
2022/01/14 09:08:54;;;;;;;5.53;4.50;;;21.30;30.00;;;;;;5092111;28;20408;-63
2022/01/14 09:11:20;;;;;;;5.30;4.50;;;21.30;30.00;;;;;;5092302;28;20378;-63
2022/01/14 09:13:46;;;;;;;5.30;4.43;;;21.40;30.00;;;;;;5092214;28;20398;-63
2022/01/14 09:16:12;;;;;;;5.53;4.20;;;21.40;29.90;;;;;;5092016;28;20472;-63
2022/01/14 09:18:39;;;;;;;5.53;4.20;;;21.40;29.90;;;;;;5073608;28;20448;-63
2022/01/14 09:21:05;;;;;;;4.70;4.03;;;21.40;29.90;;;;;;5092060;28;20385;-63
2022/01/14 09:23:33;;;;;;;6.22;4.80;;;21.50;30.00;;;;;;5092072;28;20404;-63
2022/01/14 09:26:00;;;;;;;5.28;4.35;;;21.50;29.90;;;;;;5092137;28;20395;-63
2022/01/14 09:28:28;;;;;;;4.65;3.95;;;21.50;30.00;;;;;;5092059;28;20746;-63
2022/01/14 09:30:54;;;;;;;5.32;4.13;;;21.50;29.90;;;;;;5091921;28;20902;-63
2022/01/14 09:33:21;;;;;;;5.15;4.43;;;21.40;30.00;;;;;;5073798;28;20390;-63
2022/01/14 09:35:47;;;;;;;5.47;4.32;;;21.50;30.00;;;;;;5091306;28;20401;-63
2022/01/14 09:38:13;;;;;;;6.38;4.60;;;21.50;30.10;;;;;;5091707;28;20379;-62
2022/01/14 09:40:43;;;;;;;5.22;4.20;;;21.50;30.00;;;;;;5091773;28;20393;-62
2022/01/14 09:43:12;;;;;;;4.80;4.15;;;21.50;29.90;;;;;;5091684;28;20447;-63
2022/01/14 09:45:38;;;;;;;5.00;4.10;;;21.50;30.00;;;;;;5091860;28;20386;-63
2022/01/14 09:48:04;;;;;;;5.30;4.18;;;21.50;29.80;;;;;;5072810;28;20451;-62
2022/01/14 09:50:29;;;;;;;5.45;4.15;;;21.60;29.90;;;;;;5073060;28;20433;-63
2022/01/14 09:52:55;;;;;;;5.43;4.27;;;21.60;29.80;;;;;;5072594;28;20429;-62
2022/01/14 09:55:24;;;;;;;4.68;3.97;;;21.60;29.80;;;;;;5090463;28;20394;-63
2022/01/14 09:57:52;;;;;;;5.10;4.15;;;21.70;29.80;;;;;;5090588;28;20396;-62
2022/01/14 10:00:17;;;;;;;5.60;4.30;;;21.70;29.90;;;;;;5089977;28;20410;-63
2022/01/14 10:02:44;;;;;;;5.57;4.50;;;21.70;29.80;;;;;;5091014;28;20382;-63
2022/01/14 10:05:34;;;;;;;6.53;4.88;;;21.60;29.80;;;;;;5105861;28;20392;-63
2022/01/14 10:08:08;;;;;;;7.27;5.20;;;21.60;29.80;;;;;;5085184;28;20905;-63
2022/01/14 10:10:37;;;;;;;7.78;5.00;;;21.60;29.80;;;;;;5104080;28;20389;-63
2022/01/14 10:13:32;;;;;;;6.47;4.85;;;21.50;29.90;;;;;;5092993;28;20745;-63
2022/01/14 10:16:07;;;;;;;8.07;4.78;;;21.40;30.00;;;;;;5073909;28;20390;-64
2022/01/14 10:18:33;;;;;;;6.85;4.95;;;21.40;30.00;;;;;;5090670;28;20402;-66
2022/01/14 10:21:01;;;;;;;7.70;5.53;;;21.40;30.10;;;;;;5091556;28;20378;-63
2022/01/14 10:23:44;;;;;;;7.88;5.50;;;21.40;30.20;;;;;;5091357;28;20378;-65
2022/01/14 10:26:14;;;;;;;7.57;5.30;;;21.40;30.10;;;;;;5091288;28;20378;-63
2022/01/14 10:28:43;;;;;;;7.50;4.93;;;21.40;30.20;;;;;;5091241;28;20406;-67
2022/01/14 10:31:09;;;;;;;6.95;5.10;;;21.50;30.10;;;;;;5087558;28;20409;-66
2022/01/14 10:33:37;;;;;;;6.72;4.60;;;21.50;30.10;;;;;;5082233;28;20771;-63
2022/01/14 10:36:03;;;;;;;7.18;5.10;;;21.50;30.10;;;;;;5060276;28;20990;-63
2022/01/14 10:38:46;;;;;;;7.72;5.05;;;21.50;30.30;;;;;;5089388;28;20744;-63
2022/01/14 10:41:11;;;;;;;7.60;5.20;;;21.50;30.20;;;;;;5087326;28;20390;-63
2022/01/14 10:43:40;;;;;;;7.55;4.95;;;21.60;30.30;;;;;;5089879;28;20750;-63
2022/01/14 10:46:08;;;;;;;6.93;4.82;;;21.60;30.30;;;;;;5071192;28;20451;-63
2022/01/14 10:48:37;;;;;;;7.90;4.80;;;21.60;30.30;;;;;;5068639;28;20418;-63
2022/01/14 10:51:11;;;;;;;6.78;4.70;;;21.60;30.30;;;;;;5090144;28;20374;-63
2022/01/14 10:53:44;;;;;;;7.18;4.85;;;21.60;30.20;;;;;;5088397;28;20795;-64
2022/01/14 10:56:12;;;;;;;7.87;5.17;;;21.60;30.20;;;;;;5090876;28;20382;-64
2022/01/14 10:58:43;;;;;;;7.30;4.60;;;21.60;30.10;;;;;;5072808;28;20497;-63
2022/01/14 11:01:18;;;;;;;6.57;4.38;;;21.70;30.00;;;;;;5072793;28;20425;-64
2022/01/14 11:04:00;;;;;;;6.07;4.30;;;21.70;29.90;;;;;;5090231;28;20455;-63
2022/01/14 11:06:29;;;;;;;7.27;4.63;;;21.70;29.90;;;;;;5086626;28;20400;-63
2022/01/14 11:09:12;;;;;;;6.25;4.60;;;21.80;29.80;;;;;;5070614;28;20443;-63
2022/01/14 11:11:44;;;;;;;6.05;4.20;;;21.80;29.80;;;;;;5070580;28;20394;-63
2022/01/14 11:14:10;;;;;;;6.00;4.07;;;21.80;29.70;;;;;;5070964;28;20390;-63
2022/01/14 11:16:37;;;;;;;5.65;3.83;;;21.80;29.60;;;;;;5073723;28;20763;-64
2022/01/14 11:19:06;;;;;;;5.18;3.80;;;21.90;29.60;;;;;;5073545;28;20939;-63
2022/01/14 11:24:26;;;;;;;5.50;3.70;;;22.00;29.50;;;;;;5092011;28;21001;-63
2022/01/14 11:27:00;;;;;;;5.40;4.00;;;22.00;29.50;;;;;;5091495;28;20403;-63
2022/01/14 11:29:33;;;;;;;5.87;4.13;;;22.00;29.40;;;;;;5071806;28;20449;-63
2022/01/14 11:32:00;;;;;;;4.57;3.67;;;22.00;29.30;;;;;;5073629;28;20394;-63
2022/01/14 11:34:42;;;;;;;5.20;3.87;;;22.10;29.40;;;;;;5093028;28;20394;-63
2022/01/14 11:37:17;;;;;;;4.63;3.73;;;22.10;29.20;;;;;;5096540;27;20440;-62
2022/01/14 11:40:05;;;;;;;4.25;3.40;;;22.10;29.20;;;;;;5071688;28;20414;-64
2022/01/14 11:42:58;;;;;;;5.80;3.70;;;22.10;29.10;;;;;;5073368;28;20503;-63
2022/01/14 11:45:40;;;;;;;4.50;3.50;;;22.20;29.20;;;;;;5074573;28;20398;-63
2022/01/14 11:48:07;;;;;;;5.78;3.47;;;22.20;29.10;;;;;;5094070;28;20437;-63
2022/01/14 11:50:32;;;;;;;4.82;3.40;;;22.20;29.80;;;;;;5072445;28;20426;-64
2022/01/14 11:52:59;;;;;;;5.23;3.53;;;22.10;29.40;;;;;;5071750;28;20810;-63
2022/01/14 11:55:30;;;;;;;4.60;3.38;;;22.20;29.40;;;;;;5070840;28;20383;-63
2022/01/14 11:57:57;;;;;;;4.60;3.00;;;22.10;29.50;;;;;;5072520;28;20375;-62
2022/01/14 12:00:47;;;;;;;5.85;3.00;;;22.90;30.50;;;;;;5071955;28;20408;-62
2022/01/14 12:03:14;;;;;;;5.10;3.25;;;23.30;29.80;;;;;;5072493;28;20415;-62
2022/01/14 12:05:55;;;;;;;4.50;3.00;;;23.50;29.60;;;;;;5072740;28;20399;-62
2022/01/14 12:08:27;;;;;;;4.38;2.90;;;23.50;29.40;;;;;;5071921;28;20930;-62
2022/01/14 12:10:53;;;;;;;4.43;3.25;;;23.60;29.30;;;;;;5072958;28;20457;-62
2022/01/14 12:13:42;;;;;;;4.33;3.17;;;23.70;29.50;;;;;;5071526;28;20392;-62
2022/01/14 12:18:58;;;;;;;4.80;2.93;;;23.80;29.30;;;;;;5072523;28;20435;-62
2022/01/14 12:21:43;;;;;;;4.70;2.83;;;24.00;29.50;;;;;;5071600;28;20396;-62
2022/01/14 12:24:15;;;;;;;3.95;3.10;;;24.10;29.30;;;;;;5070741;28;20396;-62
2022/01/14 12:27:10;;;;;;;6.53;3.08;;;24.10;29.20;;;;;;5068562;28;20399;-62
2022/01/14 12:29:44;;;;;;;5.60;2.90;;;24.20;29.20;;;;;;5071849;28;20396;-63
2022/01/14 12:32:15;;;;;;;4.45;3.00;;;24.30;29.30;;;;;;5071022;28;20383;-63
2022/01/14 12:35:02;;;;;;;4.38;2.83;;;24.40;29.20;;;;;;5069879;28;20396;-62
2022/01/14 12:37:51;;;;;;;5.05;2.80;;;24.40;29.30;;;;;;5070550;28;20384;-62
2022/01/14 12:40:36;;;;;;;4.03;2.58;;;24.60;29.50;;;;;;5068922;28;20423;-63
2022/01/14 12:43:06;;;;;;;4.00;2.70;;;24.60;29.20;;;;;;5066361;28;20865;-63
2022/01/14 12:45:59;;;;;;;4.60;2.83;;;24.70;29.70;;;;;;5069792;28;20765;-62
2022/01/14 12:48:39;;;;;;;4.72;2.60;;;24.90;29.60;;;;;;5086083;28;20943;-62
2022/01/14 12:51:12;;;;;;;4.18;2.47;;;24.90;29.40;;;;;;5072846;28;20402;-62
2022/01/14 12:53:47;;;;;;;4.32;2.65;;;25.00;29.30;;;;;;5090654;28;20875;-63
2022/01/14 12:56:22;;;;;;;3.97;2.60;;;25.00;29.40;;;;;;5089989;28;20394;-63
2022/01/14 12:59:09;;;;;;;6.10;2.20;;;25.20;29.60;;;;;;5091705;28;20424;-63
2022/01/14 13:01:40;;;;;;;6.57;2.65;;;25.20;29.30;;;;;;5092217;28;20408;-62
2022/01/14 13:04:12;;;;;;;3.72;2.40;;;25.10;29.10;;;;;;5091932;28;20402;-63
2022/01/14 13:06:42;;;;;;;5.00;2.22;;;25.10;29.10;;;;;;5091857;28;20382;-63
2022/01/14 13:09:07;;;;;;;4.00;2.30;;;25.10;29.00;;;;;;5073245;28;20819;-64
2022/01/14 13:11:53;;;;;;;3.17;2.30;;;25.20;29.10;;;;;;5073744;28;20423;-63
2022/01/14 13:14:26;;;;;;;4.00;2.60;;;25.30;29.00;;;;;;5090252;28;20430;-63
2022/01/14 13:16:54;;;;;;;4.33;2.40;;;25.30;28.80;;;;;;5091842;28;20394;-63